Time;durP1;ratioP1;P1;durP2;ratioP2;P2;SDS_P1;SDS_P2;PMS_P1;PMS_P2;Temp;Humidity;BMP_temperature;BMP_pressure;BME280_temperature;BME280_humidity;BME280_pressure;Samples;Min_cycle;Max_cycle;Signal;HPM_P1;HPM_P2
2022/11/20 00:02:14;;;;;;;13.93;9.77;;;;;;;;;;5017232;28;20042;-77
2022/11/20 00:04:59;;;;;;;12.25;8.23;;;;;;;;;;5016848;28;20045;-76
2022/11/20 00:07:45;;;;;;;13.27;8.07;;;;;;;;;;5003276;28;20038;-77
2022/11/20 00:10:30;;;;;;;8.43;5.32;;;;;;;;;;5025516;28;20042;-76
2022/11/20 00:13:15;;;;;;;6.45;4.13;;;;;;;;;;5017527;28;20042;-77
2022/11/20 00:16:04;;;;;;;11.00;7.72;;;;;;;;;;5017533;28;20055;-76
2022/11/20 00:18:53;;;;;;;12.63;8.35;;;;;;;;;;5016886;28;20054;-77
2022/11/20 00:21:39;;;;;;;3.55;3.25;;;;;;;;;;5015955;28;20046;-75
2022/11/20 00:24:24;;;;;;;9.75;5.85;;;;;;;;;;5016227;28;20050;-78
2022/11/20 00:27:10;;;;;;;10.52;6.40;;;;;;;;;;5006028;28;20042;-76
2022/11/20 00:29:55;;;;;;;13.20;8.43;;;;;;;;;;5014403;28;20483;-76
2022/11/20 00:32:41;;;;;;;13.63;9.05;;;;;;;;;;5013453;28;20435;-75
2022/11/20 00:35:26;;;;;;;9.50;7.20;;;;;;;;;;5015204;28;20058;-76
2022/11/20 00:38:12;;;;;;;8.65;6.10;;;;;;;;;;5021904;28;20050;-77
2022/11/20 00:40:59;;;;;;;46.63;28.50;;;;;;;;;;5016422;28;20050;-77
2022/11/20 00:43:44;;;;;;;59.97;33.63;;;;;;;;;;5016355;28;20479;-78
2022/11/20 00:46:30;;;;;;;15.95;10.75;;;;;;;;;;5015795;28;20042;-79
2022/11/20 00:49:15;;;;;;;137.45;75.85;;;;;;;;;;5016217;28;20041;-77
2022/11/20 00:52:01;;;;;;;21.85;12.45;;;;;;;;;;5015337;28;20058;-79
2022/11/20 00:54:46;;;;;;;73.95;39.65;;;;;;;;;;5016636;28;20054;-77
2022/11/20 00:57:32;;;;;;;15.82;9.20;;;;;;;;;;5016728;28;20053;-77
2022/11/20 01:00:18;;;;;;;6.82;5.15;;;;;;;;;;5015638;28;20050;-76
2022/11/20 01:03:03;;;;;;;5.97;4.80;;;;;;;;;;5016777;28;20054;-74
2022/11/20 01:05:49;;;;;;;19.70;13.93;;;;;;;;;;5016223;28;20045;-75
2022/11/20 01:08:37;;;;;;;19.73;14.70;;;;;;;;;;5023148;28;20080;-75
2022/11/20 01:11:27;;;;;;;17.00;11.18;;;;;;;;;;5018552;28;20649;-75
2022/11/20 01:14:19;;;;;;;22.08;13.70;;;;;;;;;;5018397;28;20038;-75
2022/11/20 01:17:04;;;;;;;10.07;6.50;;;;;;;;;;5008260;28;20058;-76
2022/11/20 01:19:50;;;;;;;7.68;5.60;;;;;;;;;;5008423;28;20046;-76
2022/11/20 01:22:39;;;;;;;11.05;7.43;;;;;;;;;;5007020;28;20046;-77
2022/11/20 01:25:25;;;;;;;8.07;4.88;;;;;;;;;;5015754;28;20050;-75
2022/11/20 01:28:10;;;;;;;6.93;5.60;;;;;;;;;;5005882;28;20046;-75
2022/11/20 01:30:57;;;;;;;8.20;5.85;;;;;;;;;;5012768;28;20435;-75
2022/11/20 01:33:44;;;;;;;8.13;5.50;;;;;;;;;;5015700;28;20057;-75
2022/11/20 01:36:33;;;;;;;9.73;5.35;;;;;;;;;;5014818;28;20046;-76
2022/11/20 01:39:23;;;;;;;7.60;5.10;;;;;;;;;;5014354;28;20045;-77
2022/11/20 01:45:52;;;;;;;11.25;6.95;;;;;;;;;;5014963;28;20042;-75
2022/11/20 01:48:45;;;;;;;10.48;6.60;;;;;;;;;;5016201;28;20135;-76
2022/11/20 01:52:05;;;;;;;10.07;6.32;;;;;;;;;;5022488;28;20049;-76
2022/11/20 01:55:11;;;;;;;11.27;7.18;;;;;;;;;;5007805;28;20403;-75
2022/11/20 01:57:59;;;;;;;8.25;6.07;;;;;;;;;;5006708;28;20050;-75
2022/11/20 02:00:44;;;;;;;9.07;6.75;;;;;;;;;;5006516;28;20046;-77
2022/11/20 02:03:29;;;;;;;10.50;6.88;;;;;;;;;;5015367;28;20054;-76
2022/11/20 02:06:28;;;;;;;11.10;6.53;;;;;;;;;;5015099;28;20038;-76
2022/11/20 02:09:15;;;;;;;7.85;5.20;;;;;;;;;;5016313;28;20038;-76
2022/11/20 02:12:00;;;;;;;8.30;5.35;;;;;;;;;;5015685;28;20041;-76
2022/11/20 02:14:45;;;;;;;6.20;4.43;;;;;;;;;;5022839;28;20045;-77
2022/11/20 02:17:31;;;;;;;6.55;4.35;;;;;;;;;;5015964;28;20406;-78
2022/11/20 02:20:17;;;;;;;10.60;4.72;;;;;;;;;;5015487;28;20392;-77
2022/11/20 02:23:15;;;;;;;6.20;3.47;;;;;;;;;;5015185;28;20045;-79
2022/11/20 02:26:05;;;;;;;7.40;4.03;;;;;;;;;;5015192;28;20041;-77
2022/11/20 02:28:51;;;;;;;16.35;9.02;;;;;;;;;;5020930;28;20046;-79
2022/11/20 02:31:39;;;;;;;4.97;3.20;;;;;;;;;;5014288;28;20046;-78
2022/11/20 02:34:25;;;;;;;14.93;8.77;;;;;;;;;;5020278;28;20058;-78
2022/11/20 02:37:10;;;;;;;6.47;3.38;;;;;;;;;;5014549;28;20471;-76
2022/11/20 02:39:56;;;;;;;4.50;2.45;;;;;;;;;;5014230;28;20391;-77
2022/11/20 02:42:41;;;;;;;3.72;2.40;;;;;;;;;;5013617;28;20053;-77
2022/11/20 02:45:27;;;;;;;3.63;2.20;;;;;;;;;;5014349;28;20038;-78
2022/11/20 02:48:12;;;;;;;52.70;26.98;;;;;;;;;;5013477;28;20037;-78
2022/11/20 02:50:58;;;;;;;2.63;1.70;;;;;;;;;;5015483;28;20045;-75
2022/11/20 02:53:44;;;;;;;3.63;2.13;;;;;;;;;;5013998;28;20038;-76
2022/11/20 02:56:29;;;;;;;5.88;2.63;;;;;;;;;;5012238;28;20507;-75
2022/11/20 02:59:15;;;;;;;5.70;2.50;;;;;;;;;;5014163;28;20041;-77
2022/11/20 03:02:00;;;;;;;3.55;2.13;;;;;;;;;;5019610;28;20049;-76
2022/11/20 03:04:46;;;;;;;5.03;2.20;;;;;;;;;;5014257;28;20042;-77
2022/11/20 03:07:31;;;;;;;6.18;2.40;;;;;;;;;;5014258;28;20041;-77
2022/11/20 03:10:17;;;;;;;2.55;1.83;;;;;;;;;;5014140;28;20042;-75
2022/11/20 03:13:02;;;;;;;5.80;3.72;;;;;;;;;;5014231;28;20054;-77
2022/11/20 03:15:48;;;;;;;3.00;2.20;;;;;;;;;;5014153;28;20053;-75
2022/11/20 03:18:34;;;;;;;2.70;2.00;;;;;;;;;;5013750;28;20042;-78
2022/11/20 03:21:20;;;;;;;2.63;2.10;;;;;;;;;;5020316;28;20050;-78
2022/11/20 03:24:06;;;;;;;1.65;1.33;;;;;;;;;;5013338;28;20042;-76
2022/11/20 03:26:51;;;;;;;2.08;1.50;;;;;;;;;;5013844;28;20046;-75
2022/11/20 03:29:36;;;;;;;2.58;1.80;;;;;;;;;;5014889;28;20042;-77
2022/11/20 03:32:22;;;;;;;2.20;2.00;;;;;;;;;;5012739;28;20054;-75
2022/11/20 03:35:08;;;;;;;4.53;1.95;;;;;;;;;;5013926;28;20045;-76
2022/11/20 03:37:53;;;;;;;2.95;1.77;;;;;;;;;;5013306;28;20049;-75
2022/11/20 03:40:38;;;;;;;5.60;2.25;;;;;;;;;;4999096;28;20054;-77
2022/11/20 03:43:23;;;;;;;2.97;1.92;;;;;;;;;;5005522;28;20050;-77
2022/11/20 03:46:09;;;;;;;7.35;3.40;;;;;;;;;;5012956;28;20487;-77
2022/11/20 03:48:55;;;;;;;4.18;2.35;;;;;;;;;;5013502;28;20046;-76
2022/11/20 03:51:40;;;;;;;2.47;1.95;;;;;;;;;;5013134;28;20050;-77
2022/11/20 03:54:25;;;;;;;3.95;1.90;;;;;;;;;;5013293;28;20049;-77
2022/11/20 03:57:11;;;;;;;3.47;1.92;;;;;;;;;;5013259;28;20042;-77
2022/11/20 03:59:57;;;;;;;2.60;2.10;;;;;;;;;;5012983;28;20049;-77
2022/11/20 04:02:42;;;;;;;3.63;3.00;;;;;;;;;;5019899;28;20045;-77
2022/11/20 04:05:34;;;;;;;4.22;3.05;;;;;;;;;;5014125;28;20050;-78
2022/11/20 04:08:21;;;;;;;5.13;3.00;;;;;;;;;;5022718;28;20045;-77
2022/11/20 04:11:19;;;;;;;4.32;2.60;;;;;;;;;;5016958;28;20038;-76
2022/11/20 04:14:06;;;;;;;3.50;2.95;;;;;;;;;;5015645;28;20050;-76
2022/11/20 04:16:51;;;;;;;3.13;2.42;;;;;;;;;;5021212;28;20045;-76
2022/11/20 04:19:37;;;;;;;4.05;2.40;;;;;;;;;;5014878;28;20403;-76
2022/11/20 04:22:22;;;;;;;4.95;2.53;;;;;;;;;;5014071;28;20053;-77
2022/11/20 04:25:08;;;;;;;1.95;1.33;;;;;;;;;;5014491;28;20483;-77
2022/11/20 04:27:54;;;;;;;3.08;1.65;;;;;;;;;;5014038;28;20046;-75
2022/11/20 04:30:39;;;;;;;4.90;1.83;;;;;;;;;;5014072;28;20049;-74
2022/11/20 04:33:25;;;;;;;3.65;1.80;;;;;;;;;;5014258;28;20491;-76
2022/11/20 04:36:21;;;;;;;1.65;1.20;;;;;;;;;;5020304;28;20053;-75
2022/11/20 04:39:06;;;;;;;3.80;2.00;;;;;;;;;;5014012;28;20309;-75
2022/11/20 04:44:56;;;;;;;8.80;3.25;;;;;;;;;;5015439;28;20046;-75
2022/11/20 04:47:41;;;;;;;6.90;4.00;;;;;;;;;;5022693;28;20046;-76
2022/11/20 04:50:26;;;;;;;4.22;2.63;;;;;;;;;;5015579;28;20042;-76
2022/11/20 04:53:12;;;;;;;5.93;3.00;;;;;;;;;;5016389;28;20041;-75
2022/11/20 04:56:03;;;;;;;2.92;2.13;;;;;;;;;;5015797;28;20050;-77
2022/11/20 04:58:49;;;;;;;5.25;2.70;;;;;;;;;;5016278;28;20054;-75
2022/11/20 05:01:34;;;;;;;4.25;2.83;;;;;;;;;;5016085;28;20038;-75
2022/11/20 05:04:20;;;;;;;3.70;2.20;;;;;;;;;;5015448;28;20042;-79
2022/11/20 05:07:05;;;;;;;2.83;1.67;;;;;;;;;;5015871;28;20046;-77
2022/11/20 05:09:51;;;;;;;4.45;2.83;;;;;;;;;;5015581;28;20038;-76
2022/11/20 05:12:37;;;;;;;2.35;1.90;;;;;;;;;;5015700;28;20053;-76
2022/11/20 05:15:22;;;;;;;2.47;1.75;;;;;;;;;;5022259;28;20046;-75
2022/11/20 05:18:08;;;;;;;3.13;1.60;;;;;;;;;;5021291;28;20042;-76
2022/11/20 05:20:57;;;;;;;3.03;1.70;;;;;;;;;;5015552;28;20046;-76
2022/11/20 05:23:43;;;;;;;4.28;2.10;;;;;;;;;;5016064;28;20045;-76
2022/11/20 05:26:28;;;;;;;2.22;1.98;;;;;;;;;;5015156;28;20053;-75
2022/11/20 05:29:13;;;;;;;4.55;2.55;;;;;;;;;;5015422;28;20046;-75
2022/11/20 05:31:59;;;;;;;2.95;1.67;;;;;;;;;;5014662;28;20050;-76
2022/11/20 05:34:44;;;;;;;3.20;2.05;;;;;;;;;;5015199;28;20054;-77
2022/11/20 05:37:30;;;;;;;1.75;1.52;;;;;;;;;;5015427;28;20399;-74
2022/11/20 05:40:15;;;;;;;7.18;5.45;;;;;;;;;;5014649;28;20042;-75
2022/11/20 05:43:01;;;;;;;2.65;1.92;;;;;;;;;;5015201;28;20046;-75
2022/11/20 05:45:54;;;;;;;2.88;2.35;;;;;;;;;;5021294;28;20046;-76
2022/11/20 05:48:41;;;;;;;5.03;3.72;;;;;;;;;;5015285;28;20467;-75
2022/11/20 05:51:27;;;;;;;5.50;3.50;;;;;;;;;;5015319;28;20400;-76
2022/11/20 05:54:13;;;;;;;4.88;3.35;;;;;;;;;;5014439;28;20495;-76
2022/11/20 05:56:58;;;;;;;2.45;1.90;;;;;;;;;;5014751;28;20041;-77
2022/11/20 05:59:44;;;;;;;5.07;2.95;;;;;;;;;;5014533;28;20046;-75
2022/11/20 06:02:29;;;;;;;4.28;3.17;;;;;;;;;;5014689;28;20058;-75
2022/11/20 06:05:15;;;;;;;5.15;3.15;;;;;;;;;;5021309;28;20407;-77
2022/11/20 06:08:01;;;;;;;5.72;2.80;;;;;;;;;;5020219;28;20046;-77
2022/11/20 06:10:46;;;;;;;3.30;2.33;;;;;;;;;;5020901;28;20479;-77
2022/11/20 06:13:32;;;;;;;4.93;2.95;;;;;;;;;;5013863;28;20038;-77
2022/11/20 06:16:20;;;;;;;8.13;5.18;;;;;;;;;;5014838;28;20395;-75
2022/11/20 06:19:05;;;;;;;5.32;3.67;;;;;;;;;;5021009;28;20046;-76
2022/11/20 06:21:50;;;;;;;5.63;3.92;;;;;;;;;;5014086;28;20046;-76
2022/11/20 06:24:38;;;;;;;7.80;4.78;;;;;;;;;;5021163;28;20046;-77
2022/11/20 06:27:24;;;;;;;7.07;4.95;;;;;;;;;;5014468;28;20054;-77
2022/11/20 06:30:10;;;;;;;6.75;4.63;;;;;;;;;;5013229;28;20434;-75
2022/11/20 06:32:54;;;;;;;4.95;3.90;;;;;;;;;;5014317;28;20037;-76
2022/11/20 06:35:39;;;;;;;4.03;2.78;;;;;;;;;;5014101;28;20045;-76
2022/11/20 06:38:25;;;;;;;6.93;4.43;;;;;;;;;;5014332;28;20037;-75
2022/11/20 06:41:13;;;;;;;5.03;2.85;;;;;;;;;;5014737;28;20479;-75
2022/11/20 06:43:58;;;;;;;4.43;2.65;;;;;;;;;;5013890;28;20057;-76
2022/11/20 06:46:44;;;;;;;5.40;2.15;;;;;;;;;;5014020;28;20046;-75
2022/11/20 06:49:29;;;;;;;4.90;3.25;;;;;;;;;;5020260;28;20049;-76
2022/11/20 06:52:15;;;;;;;7.43;3.25;;;;;;;;;;5013786;28;20046;-75
2022/11/20 06:55:00;;;;;;;4.32;2.80;;;;;;;;;;5013885;28;20050;-75
2022/11/20 06:57:46;;;;;;;4.47;2.83;;;;;;;;;;5013654;28;20042;-76
2022/11/20 07:00:31;;;;;;;6.20;3.97;;;;;;;;;;5020256;28;20046;-80
2022/11/20 07:03:17;;;;;;;9.88;6.28;;;;;;;;;;5013496;28;20046;-76
2022/11/20 07:06:03;;;;;;;13.48;6.55;;;;;;;;;;5013251;28;20057;-77
2022/11/20 07:08:51;;;;;;;5.72;3.50;;;;;;;;;;5014331;28;20089;-77
2022/11/20 07:11:37;;;;;;;6.18;3.85;;;;;;;;;;5013294;28;20058;-78
2022/11/20 07:14:22;;;;;;;4.68;3.28;;;;;;;;;;5013721;28;20042;-76
2022/11/20 07:17:08;;;;;;;5.53;4.53;;;;;;;;;;5013954;28;20045;-77
2022/11/20 07:19:54;;;;;;;7.65;3.40;;;;;;;;;;5013489;28;20054;-77
2022/11/20 07:22:39;;;;;;;6.75;3.28;;;;;;;;;;5013623;28;20049;-77
2022/11/20 07:25:26;;;;;;;7.10;4.70;;;;;;;;;;5013206;28;20089;-76
2022/11/20 07:28:12;;;;;;;5.85;3.53;;;;;;;;;;5013675;28;20054;-76
2022/11/20 07:30:57;;;;;;;8.05;4.10;;;;;;;;;;5002354;28;20041;-76
2022/11/20 07:33:42;;;;;;;10.07;5.13;;;;;;;;;;5019762;28;20042;-77
2022/11/20 07:36:28;;;;;;;8.38;5.45;;;;;;;;;;5013680;28;20038;-77
2022/11/20 07:39:14;;;;;;;6.22;3.75;;;;;;;;;;5013374;28;20050;-77
2022/11/20 07:41:59;;;;;;;12.40;7.18;;;;;;;;;;5014272;28;20062;-77
2022/11/20 07:44:45;;;;;;;13.85;8.60;;;;;;;;;;5017343;28;20488;-76
2022/11/20 07:47:39;;;;;;;13.27;8.32;;;;;;;;;;5023159;28;20042;-77
2022/11/20 07:50:25;;;;;;;11.20;7.05;;;;;;;;;;5024867;28;20038;-76
2022/11/20 07:53:12;;;;;;;10.48;7.20;;;;;;;;;;5007298;28;20058;-76
2022/11/20 07:56:01;;;;;;;18.88;10.23;;;;;;;;;;5015493;28;20041;-76
2022/11/20 07:58:45;;;;;;;20.63;11.00;;;;;;;;;;5017060;28;20475;-75
2022/11/20 08:01:30;;;;;;;19.67;14.13;;;;;;;;;;5014968;28;20038;-76
2022/11/20 08:04:16;;;;;;;24.73;15.95;;;;;;;;;;5015534;28;20058;-76
2022/11/20 08:07:02;;;;;;;23.67;16.52;;;;;;;;;;5023339;28;20042;-77
2022/11/20 08:09:47;;;;;;;26.05;17.10;;;;;;;;;;5016324;28;20045;-77
2022/11/20 08:15:39;;;;;;;28.98;14.52;;;;;;;;;;5016442;28;20037;-76
2022/11/20 08:18:25;;;;;;;29.30;16.23;;;;;;;;;;5016773;28;20042;-75
2022/11/20 08:21:10;;;;;;;26.38;16.52;;;;;;;;;;5016544;28;20041;-75
2022/11/20 08:23:55;;;;;;;48.00;33.58;;;;;;;;;;5015834;28;20042;-75
2022/11/20 08:26:41;;;;;;;53.80;30.25;;;;;;;;;;5016544;28;20387;-76
2022/11/20 08:29:27;;;;;;;59.92;37.55;;;;;;;;;;5016011;28;20101;-76
2022/11/20 08:32:12;;;;;;;50.20;30.88;;;;;;;;;;5015919;28;20050;-76
2022/11/20 08:34:57;;;;;;;109.03;71.65;;;;;;;;;;5016610;28;20046;-75
2022/11/20 08:37:46;;;;;;;19.80;12.07;;;;;;;;;;5015922;28;20050;-75
2022/11/20 08:40:33;;;;;;;37.42;17.95;;;;;;;;;;5016430;28;20478;-77
2022/11/20 08:43:18;;;;;;;61.70;29.40;;;;;;;;;;5016103;28;20475;-75
2022/11/20 08:46:04;;;;;;;29.00;19.60;;;;;;;;;;5016186;28;20484;-75
2022/11/20 08:48:49;;;;;;;26.05;18.65;;;;;;;;;;5016406;28;20045;-75
2022/11/20 08:51:35;;;;;;;23.38;16.38;;;;;;;;;;5015659;28;20042;-76
2022/11/20 08:54:21;;;;;;;16.83;11.63;;;;;;;;;;5022229;28;20046;-77
2022/11/20 08:57:07;;;;;;;24.00;15.75;;;;;;;;;;5015988;28;20046;-77
2022/11/20 08:59:52;;;;;;;26.33;19.38;;;;;;;;;;5015411;28;20057;-76
2022/11/20 09:02:38;;;;;;;34.03;21.23;;;;;;;;;;5015492;28;20038;-76
2022/11/20 09:05:24;;;;;;;38.35;23.63;;;;;;;;;;5014983;28;20042;-76
2022/11/20 09:08:09;;;;;;;29.45;16.45;;;;;;;;;;5015667;28;20414;-76
2022/11/20 09:10:56;;;;;;;28.38;17.63;;;;;;;;;;5015604;28;20046;-76
2022/11/20 09:13:41;;;;;;;27.83;17.42;;;;;;;;;;5014700;28;20050;-75
2022/11/20 09:16:27;;;;;;;14.32;9.05;;;;;;;;;;5015298;28;20050;-76
2022/11/20 09:19:13;;;;;;;44.47;24.33;;;;;;;;;;5021747;28;20041;-76
2022/11/20 09:21:59;;;;;;;27.27;18.33;;;;;;;;;;5014907;28;20046;-76
2022/11/20 09:24:45;;;;;;;23.20;14.43;;;;;;;;;;5015928;28;20050;-76
2022/11/20 09:27:30;;;;;;;29.05;20.13;;;;;;;;;;5020767;28;20475;-76
2022/11/20 09:30:16;;;;;;;27.75;14.93;;;;;;;;;;5014715;28;20054;-81
2022/11/20 09:33:04;;;;;;;23.40;14.25;;;;;;;;;;5014927;28;20049;-80
2022/11/20 09:35:50;;;;;;;14.27;9.50;;;;;;;;;;5021587;28;20042;-79
2022/11/20 09:38:36;;;;;;;18.75;13.00;;;;;;;;;;5015497;28;20037;-82
2022/11/20 09:41:27;;;;;;;18.80;13.05;;;;;;;;;;5014705;28;20046;-81
2022/11/20 09:44:50;;;;;;;20.25;12.32;;;;;;;;;;5014543;28;20045;-81
2022/11/20 09:48:09;;;;;;;16.88;11.57;;;;;;;;;;5021290;28;20395;-80
2022/11/20 09:51:24;;;;;;;18.60;12.23;;;;;;;;;;5015017;28;20045;-78
2022/11/20 09:54:21;;;;;;;13.18;9.48;;;;;;;;;;4995577;28;20491;-78
2022/11/20 09:57:18;;;;;;;14.88;10.90;;;;;;;;;;5014613;28;20041;-78
2022/11/20 10:00:06;;;;;;;15.25;10.57;;;;;;;;;;5020520;28;20038;-79
2022/11/20 10:03:03;;;;;;;18.80;11.65;;;;;;;;;;5019104;28;20046;-78
2022/11/20 10:05:53;;;;;;;10.43;7.20;;;;;;;;;;5020651;28;20098;-80
2022/11/20 10:08:47;;;;;;;23.70;13.90;;;;;;;;;;5020693;28;20061;-80
2022/11/20 10:11:44;;;;;;;19.83;10.60;;;;;;;;;;5020067;28;20487;-78
2022/11/20 10:15:05;;;;;;;15.38;10.02;;;;;;;;;;5019843;28;20045;-78
2022/11/20 10:18:28;;;;;;;15.55;8.02;;;;;;;;;;5020314;28;20046;-81
2022/11/20 10:21:38;;;;;;;14.80;8.63;;;;;;;;;;5021413;28;20038;-80
2022/11/20 10:24:35;;;;;;;14.75;10.13;;;;;;;;;;5013488;28;20041;-79
2022/11/20 10:27:44;;;;;;;18.73;13.05;;;;;;;;;;5021983;28;20053;-80
2022/11/20 10:30:31;;;;;;;22.42;14.00;;;;;;;;;;5014749;28;20050;-78
2022/11/20 10:33:21;;;;;;;15.50;9.02;;;;;;;;;;5014059;28;20046;-77
2022/11/20 10:36:22;;;;;;;10.88;7.43;;;;;;;;;;5021035;28;20053;-77
2022/11/20 10:39:24;;;;;;;23.27;13.77;;;;;;;;;;5020200;28;20049;-79
2022/11/20 10:42:15;;;;;;;20.65;12.23;;;;;;;;;;5014508;28;20046;-78
2022/11/20 10:45:31;;;;;;;19.60;12.02;;;;;;;;;;5020521;28;20046;-79
2022/11/20 10:48:21;;;;;;;15.82;11.20;;;;;;;;;;5014630;28;20050;-80
2022/11/20 10:51:32;;;;;;;16.52;10.18;;;;;;;;;;5014032;28;20049;-80
2022/11/20 10:54:51;;;;;;;13.57;8.45;;;;;;;;;;5013839;28;20049;-84
2022/11/20 10:58:03;;;;;;;11.18;6.95;;;;;;;;;;4954591;28;20038;-78
2022/11/20 11:00:48;;;;;;;22.13;12.02;;;;;;;;;;5019270;28;20049;-79
2022/11/20 11:03:34;;;;;;;20.45;11.50;;;;;;;;;;5012418;28;20053;-78
2022/11/20 11:06:38;;;;;;;19.08;11.55;;;;;;;;;;5019335;28;20057;-76
2022/11/20 11:09:35;;;;;;;12.35;6.32;;;;;;;;;;5013219;28;20395;-79
2022/11/20 11:12:23;;;;;;;18.02;12.40;;;;;;;;;;5013635;28;20423;-78
2022/11/20 11:15:15;;;;;;;20.65;11.68;;;;;;;;;;5013979;28;20395;-78
2022/11/20 11:18:00;;;;;;;32.47;15.77;;;;;;;;;;5016489;28;20046;-77
2022/11/20 11:20:51;;;;;;;25.90;15.27;;;;;;;;;;5017488;28;20045;-78
2022/11/20 11:23:39;;;;;;;17.17;10.85;;;;;;;;;;5017706;28;20042;-79
2022/11/20 11:26:25;;;;;;;18.05;11.10;;;;;;;;;;5017597;28;20042;-77
2022/11/20 11:29:17;;;;;;;28.02;16.38;;;;;;;;;;5017019;28;20037;-79
2022/11/20 11:32:26;;;;;;;22.67;13.88;;;;;;;;;;5017375;28;20054;-78
2022/11/20 11:35:31;;;;;;;19.58;12.38;;;;;;;;;;5016855;28;20042;-77
2022/11/20 11:38:32;;;;;;;24.27;14.77;;;;;;;;;;5024256;28;20479;-77
2022/11/20 11:41:25;;;;;;;16.40;10.48;;;;;;;;;;5016826;28;20049;-77
2022/11/20 11:48:03;;;;;;;20.27;12.93;;;;;;;;;;5011940;28;20053;-78
2022/11/20 11:50:50;;;;;;;18.55;12.43;;;;;;;;;;5017177;28;20053;-78
2022/11/20 11:53:41;;;;;;;15.27;9.63;;;;;;;;;;5017348;28;20042;-78
2022/11/20 11:56:28;;;;;;;13.75;9.60;;;;;;;;;;5016629;28;20042;-78
2022/11/20 11:59:28;;;;;;;37.10;16.45;;;;;;;;;;5023164;28;20046;-79
2022/11/20 12:02:34;;;;;;;29.10;15.73;;;;;;;;;;5016872;28;20042;-76
2022/11/20 12:05:19;;;;;;;25.75;15.35;;;;;;;;;;5015704;28;20050;-77
2022/11/20 12:08:09;;;;;;;25.25;14.43;;;;;;;;;;5015356;28;20058;-77
2022/11/20 12:11:14;;;;;;;29.42;18.13;;;;;;;;;;5015404;28;20591;-76
2022/11/20 12:14:29;;;;;;;18.13;12.57;;;;;;;;;;5018347;28;20058;-78
2022/11/20 12:17:15;;;;;;;19.13;11.90;;;;;;;;;;5012594;28;20046;-76
2022/11/20 12:20:00;;;;;;;25.27;15.75;;;;;;;;;;5023013;28;20407;-79
2022/11/20 12:22:55;;;;;;;22.85;12.98;;;;;;;;;;5014524;28;20049;-79
2022/11/20 12:25:47;;;;;;;22.60;12.30;;;;;;;;;;5021651;28;20495;-77
2022/11/20 12:28:41;;;;;;;24.33;15.23;;;;;;;;;;5022380;28;20045;-78
2022/11/20 12:31:54;;;;;;;35.38;15.88;;;;;;;;;;5015555;28;20054;-77
2022/11/20 12:34:47;;;;;;;35.30;19.75;;;;;;;;;;5016473;28;20057;-79
2022/11/20 12:37:43;;;;;;;29.23;18.02;;;;;;;;;;5016856;28;20049;-81
2022/11/20 12:40:37;;;;;;;19.35;11.75;;;;;;;;;;5016169;28;20038;-79
2022/11/20 12:46:49;;;;;;;17.40;11.60;;;;;;;;;;5015497;28;20483;-79
2022/11/20 12:49:58;;;;;;;25.60;14.82;;;;;;;;;;5016985;28;20046;-78
2022/11/20 12:53:04;;;;;;;20.00;12.25;;;;;;;;;;5015547;28;20050;-78
2022/11/20 12:56:13;;;;;;;29.85;18.13;;;;;;;;;;5022340;28;20049;-80
2022/11/20 12:59:13;;;;;;;24.40;11.95;;;;;;;;;;5021783;28;20053;-79
2022/11/20 13:02:25;;;;;;;33.92;20.52;;;;;;;;;;5015694;28;20053;-77
2022/11/20 13:05:34;;;;;;;39.45;22.40;;;;;;;;;;5015673;28;20137;-77
2022/11/20 13:08:31;;;;;;;25.90;16.35;;;;;;;;;;5014897;28;20049;-79
2022/11/20 13:11:27;;;;;;;28.70;17.42;;;;;;;;;;5022537;28;20046;-79
2022/11/20 13:14:12;;;;;;;16.17;10.02;;;;;;;;;;5015201;28;20468;-79
2022/11/20 13:17:00;;;;;;;21.88;13.32;;;;;;;;;;5014820;28;20042;-78
2022/11/20 13:19:54;;;;;;;19.38;12.60;;;;;;;;;;5015525;28;20054;-78
2022/11/20 13:22:54;;;;;;;31.65;20.15;;;;;;;;;;5015286;28;20463;-78
2022/11/20 13:25:40;;;;;;;27.60;15.77;;;;;;;;;;5015254;28;20038;-80
2022/11/20 13:28:30;;;;;;;22.65;13.52;;;;;;;;;;5015072;28;20391;-80
2022/11/20 13:31:43;;;;;;;27.27;17.90;;;;;;;;;;5015130;28;20042;-78
2022/11/20 13:34:28;;;;;;;25.48;16.50;;;;;;;;;;5021961;28;20046;-77
2022/11/20 13:37:26;;;;;;;25.90;14.82;;;;;;;;;;5014752;28;20054;-77
2022/11/20 13:40:22;;;;;;;21.92;13.55;;;;;;;;;;5014759;28;20038;-79
2022/11/20 13:43:26;;;;;;;21.42;11.70;;;;;;;;;;5014722;28;20057;-80
2022/11/20 13:46:12;;;;;;;24.73;15.68;;;;;;;;;;5015369;28;20574;-78
2022/11/20 13:48:57;;;;;;;23.23;14.25;;;;;;;;;;5000505;28;20426;-79
2022/11/20 13:51:47;;;;;;;22.23;12.75;;;;;;;;;;5021301;28;20049;-79
2022/11/20 13:54:43;;;;;;;28.20;16.83;;;;;;;;;;5020634;28;20045;-79
2022/11/20 13:57:51;;;;;;;37.97;22.83;;;;;;;;;;5015353;28;20506;-81
2022/11/20 14:00:54;;;;;;;32.33;20.50;;;;;;;;;;5015094;28;20049;-80
2022/11/20 14:03:40;;;;;;;14.98;10.35;;;;;;;;;;5020723;28;20422;-78
2022/11/20 14:06:34;;;;;;;27.13;19.15;;;;;;;;;;5014805;28;20053;-80
2022/11/20 14:09:28;;;;;;;28.70;17.48;;;;;;;;;;5015372;28;20054;-79
2022/11/20 14:12:17;;;;;;;22.48;14.65;;;;;;;;;;5014225;28;20042;-80
2022/11/20 14:15:02;;;;;;;28.85;17.98;;;;;;;;;;5014493;28;20038;-80
2022/11/20 14:17:48;;;;;;;24.98;16.58;;;;;;;;;;5014382;28;20499;-80
2022/11/20 14:20:34;;;;;;;25.75;15.85;;;;;;;;;;5014503;28;20046;-79
2022/11/20 14:23:27;;;;;;;43.20;27.00;;;;;;;;;;5015145;28;20231;-79
2022/11/20 14:26:20;;;;;;;22.55;15.52;;;;;;;;;;5014283;28;20537;-79
2022/11/20 14:29:05;;;;;;;21.95;14.50;;;;;;;;;;5014771;28;20042;-80
2022/11/20 14:31:53;;;;;;;27.00;16.48;;;;;;;;;;5013655;28;20479;-81
2022/11/20 14:34:41;;;;;;;27.67;16.23;;;;;;;;;;5020545;28;20046;-79
2022/11/20 14:37:33;;;;;;;24.10;16.30;;;;;;;;;;5014346;28;20049;-80
2022/11/20 14:40:25;;;;;;;27.83;17.35;;;;;;;;;;5013718;28;20046;-79
2022/11/20 14:43:25;;;;;;;31.92;16.58;;;;;;;;;;5014209;28;20390;-79
2022/11/20 14:46:11;;;;;;;32.50;18.35;;;;;;;;;;5013836;28;20042;-79
2022/11/20 14:49:00;;;;;;;27.13;17.98;;;;;;;;;;5014072;28;20050;-79
2022/11/20 14:51:46;;;;;;;25.15;15.82;;;;;;;;;;5014162;28;20045;-80
2022/11/20 14:54:33;;;;;;;29.45;18.10;;;;;;;;;;5013593;28;20042;-79
2022/11/20 14:57:30;;;;;;;24.52;16.83;;;;;;;;;;5014544;28;20476;-79
2022/11/20 15:00:15;;;;;;;27.05;16.83;;;;;;;;;;5014236;28;20042;-81
2022/11/20 15:03:01;;;;;;;29.00;16.30;;;;;;;;;;5013848;28;20042;-81
2022/11/20 15:05:49;;;;;;;23.00;15.60;;;;;;;;;;5020256;28;20050;-81
2022/11/20 15:08:35;;;;;;;25.77;16.02;;;;;;;;;;5020175;28;20042;-80
2022/11/20 15:11:28;;;;;;;21.52;13.52;;;;;;;;;;5015020;28;20046;-80
2022/11/20 15:14:13;;;;;;;22.05;13.30;;;;;;;;;;5014262;28;20042;-80
2022/11/20 15:16:59;;;;;;;24.58;14.13;;;;;;;;;;5020257;28;20038;-80
2022/11/20 15:19:45;;;;;;;21.92;13.57;;;;;;;;;;5014195;28;20038;-80
2022/11/20 15:22:30;;;;;;;18.35;12.10;;;;;;;;;;5013422;28;20058;-81
2022/11/20 15:25:17;;;;;;;18.98;11.75;;;;;;;;;;5014122;28;20050;-80
2022/11/20 15:28:03;;;;;;;24.27;15.18;;;;;;;;;;5014042;28;20045;-83
2022/11/20 15:30:49;;;;;;;23.00;14.20;;;;;;;;;;5013181;28;20050;-82
2022/11/20 15:33:34;;;;;;;47.33;24.65;;;;;;;;;;5000434;28;20049;-81
2022/11/20 15:36:20;;;;;;;15.65;11.13;;;;;;;;;;5013352;28;20054;-83
2022/11/20 15:39:09;;;;;;;15.40;9.90;;;;;;;;;;5013807;28;20479;-81
2022/11/20 15:41:54;;;;;;;21.27;13.68;;;;;;;;;;5014424;28;20483;-83
2022/11/20 15:44:40;;;;;;;22.23;14.02;;;;;;;;;;5005337;28;20046;-85
2022/11/20 15:47:29;;;;;;;24.38;15.45;;;;;;;;;;5013664;28;20487;-82
2022/11/20 15:50:17;;;;;;;20.13;12.82;;;;;;;;;;5014421;28;20054;-82
2022/11/20 15:53:03;;;;;;;22.98;14.57;;;;;;;;;;5013940;28;20034;-82
2022/11/20 15:55:48;;;;;;;15.98;10.40;;;;;;;;;;5014357;28;20050;-78
2022/11/20 15:58:35;;;;;;;19.33;13.60;;;;;;;;;;5013723;28;20046;-82
2022/11/20 16:01:22;;;;;;;17.52;11.65;;;;;;;;;;5014438;28;20041;-82
2022/11/20 16:04:12;;;;;;;18.92;12.27;;;;;;;;;;5016428;28;20042;-85
2022/11/20 16:06:57;;;;;;;17.08;9.73;;;;;;;;;;5002982;28;20053;-82
2022/11/20 16:09:43;;;;;;;12.57;9.90;;;;;;;;;;5018886;28;20041;-82
2022/11/20 16:15:52;;;;;;;18.23;11.65;;;;;;;;;;4985581;28;20046;-82
2022/11/20 16:18:37;;;;;;;22.77;14.35;;;;;;;;;;5019139;28;20495;-82
2022/11/20 16:21:30;;;;;;;18.80;12.75;;;;;;;;;;5017473;28;20054;-82
2022/11/20 16:24:16;;;;;;;22.45;13.85;;;;;;;;;;5017535;28;20487;-81
2022/11/20 16:27:02;;;;;;;16.50;11.02;;;;;;;;;;5017184;28;20053;-83
2022/11/20 16:29:48;;;;;;;16.38;10.25;;;;;;;;;;5017355;28;20050;-83
2022/11/20 16:32:34;;;;;;;14.18;8.95;;;;;;;;;;4997586;28;20046;-83
2022/11/20 16:35:19;;;;;;;19.02;12.05;;;;;;;;;;5000860;28;20042;-83
2022/11/20 16:38:05;;;;;;;19.40;12.75;;;;;;;;;;5022456;28;20042;-82
2022/11/20 16:40:51;;;;;;;22.52;13.00;;;;;;;;;;5014091;28;20050;-80
2022/11/20 16:43:36;;;;;;;21.55;12.63;;;;;;;;;;5032947;28;20046;-84
2022/11/20 16:46:23;;;;;;;16.67;11.52;;;;;;;;;;5014214;28;20046;-83
2022/11/20 16:49:13;;;;;;;17.50;11.88;;;;;;;;;;5016220;28;20022;-81
2022/11/20 16:51:58;;;;;;;22.98;14.15;;;;;;;;;;5017734;28;20046;-81
2022/11/20 16:54:43;;;;;;;19.83;13.23;;;;;;;;;;5016839;28;20039;-80
2022/11/20 16:57:32;;;;;;;30.17;18.25;;;;;;;;;;5014445;28;20050;-81
2022/11/20 17:00:18;;;;;;;27.83;16.40;;;;;;;;;;5017045;28;20047;-82